Biggin Hill, United Kingdom
Current Conditions -  °F | °C
As of 1:20 PM on Sunday 23 Nov 2014 (Local Time) from EGKB Reporting Station
Moderate Rain Moderate Rain  
Wind Chill: 37°   Ceiling: 400
Heat Index: 43°   Visibility: 2.1mi
Dew Point: 41°   Wind: 12mph
Humidity: 93%   Direction: 360°N
Pressure: 30"   Gusts: NA
Location:  51.3°N, 0.05°E
Report Text: EGKB 231320Z 36010KT 3500 RA BR BKN004 06/05 Q1016
Loading
Personal Weather Stations






























Interactive Weather Map New forecast layout! Learn more

10-Day Weather Forecast

Advertisements
Track Severe Weather on mobile